This is the latest recevied weather packets stored in our database for station/object YG1CIC-13. If no packets are shown the sender has not sent any weather packets the latest 10 day(s).
| Time | Temp. | Humidity | Pressure | Rain* | Wind** | Luminosity | Snow |
|---|---|---|---|---|---|---|---|
| 1777882368 | 31.67° C | 79% | - | 0 mm | - | - | - |
| 1777881767 | 32.22° C | 80% | - | 0 mm | - | - | - |
| 1777881166 | 32.22° C | 79% | - | 0 mm | - | - | - |
| 1777880565 | 32.78° C | 78% | - | 0 mm | - | - | - |
| 1777879965 | 32.22° C | 78% | - | 0 mm | - | - | - |
| 1777879364 | 32.22° C | 80% | - | 0 mm | - | - | - |
| 1777878763 | 32.22° C | 80% | - | 0 mm | - | - | - |
| 1777878162 | 32.78° C | 80% | - | 0 mm | - | - | - |
| 1777876962 | 32.22° C | 78% | - | 0 mm | - | - | - |
| 1777876361 | 32.22° C | 77% | - | 0 mm | - | - | - |
| 1777875761 | 31.11° C | 78% | - | 0 mm | - | - | - |
| 1777875160 | 31.11° C | 80% | - | 0 mm | - | - | - |
| 1777874560 | 30.56° C | 81% | - | 0 mm | - | - | - |
| 1777873959 | 30° C | 83% | - | 0 mm | - | - | - |
| 1777873359 | 30° C | 86% | - | 0 mm | - | - | - |
| 1777872770 | 29.44° C | 86% | - | 0 mm | - | - | - |
| 1777871558 | 30.56° C | 85% | - | 0 mm | - | - | - |
| 1777870958 | 31.11° C | 86% | - | 0 mm | - | - | - |
| 1777870358 | 32.22° C | 80% | - | 0 mm | - | - | - |
| 1777869758 | 32.78° C | 75% | - | 0 mm | - | - | - |
| 1777869157 | 33.33° C | 73% | - | 0 mm | - | - | - |
| 1777868558 | 34.44° C | 69% | - | 0 mm | - | - | - |
| 1777867957 | 36.11° C | 59% | - | 0 mm | - | - | - |
| 1777867356 | 36.67° C | 58% | - | 0 mm | - | - | - |
| 1777866756 | 37.22° C | 57% | - | 0 mm | - | - | - |
* Rain latest hour (hover to see other rain measurements)
** Current wind speed in m/s (hover to see current wind gust speed)